Agate, Colorado
Current Conditions -  °F | °C
As of 5:55 PM on Monday 24 Nov 2014 (Local Time) from KLIC Reporting Station
Few Clouds Few Clouds  
Wind Chill: 16°   Ceiling: Unl
Heat Index: 28°   Visibility: 10mi
Dew Point: 17°   Wind: 17mph
Humidity: 63%   Direction: 330°NNW
Pressure: 30.15"   Gusts: NA
Location:  39.46°N, 103.94°W
Report Text: KLIC 250055Z AUTO 33015KT 10SM FEW060 M02/M08 A3015 RMK AO2 PK WND 34035/0003 SLP245 T10221083
Loading
Personal Weather Stations






























Interactive Weather Map New forecast layout! Learn more

10-Day Weather Forecast

Advertisements
Track Severe Weather on mobile